Time;durP1;ratioP1;P1;durP2;ratioP2;P2;SDS_P1;SDS_P2;PMS_P1;PMS_P2;Temp;Humidity;BMP_temperature;BMP_pressure;BME280_temperature;BME280_humidity;BME280_pressure;Samples;Min_cycle;Max_cycle;Signal;HPM_P1;HPM_P2
2023/12/29 00:01:18;;;;;;;0.10;0.10;;;;;;;;;;5075499;28;20036;-93
2023/12/29 00:03:44;;;;;;;0.03;0.03;;;;;;;;;;5090103;28;20022;-93
2023/12/29 00:06:10;;;;;;;0.00;0.00;;;;;;;;;;5081852;28;20048;-96
2023/12/29 00:08:39;;;;;;;0.00;0.00;;;;;;;;;;5074420;28;20047;-93
2023/12/29 00:11:05;;;;;;;0.00;0.00;;;;;;;;;;5097998;28;20012;-93
2023/12/29 00:13:31;;;;;;;0.00;0.00;;;;;;;;;;5079579;28;20007;-95
2023/12/29 00:15:57;;;;;;;0.00;0.00;;;;;;;;;;5072863;28;20042;-95
2023/12/29 00:18:24;;;;;;;0.00;0.00;;;;;;;;;;5068843;28;20129;-95
2023/12/29 00:20:50;;;;;;;0.00;0.00;;;;;;;;;;5075411;28;20117;-93
2023/12/29 00:23:16;;;;;;;0.00;0.00;;;;;;;;;;5083478;28;20105;-95
2023/12/29 00:25:42;;;;;;;0.00;0.00;;;;;;;;;;5077065;28;20073;-93
2023/12/29 00:28:08;;;;;;;0.05;0.05;;;;;;;;;;5072991;28;20015;-93
2023/12/29 00:30:34;;;;;;;0.00;0.00;;;;;;;;;;5075474;28;20038;-95
2023/12/29 00:33:00;;;;;;;0.00;0.00;;;;;;;;;;5077119;28;20066;-94
2023/12/29 00:35:26;;;;;;;0.00;0.00;;;;;;;;;;5074356;28;20399;-93
2023/12/29 00:37:52;;;;;;;0.00;0.00;;;;;;;;;;5080163;28;20034;-94
2023/12/29 00:40:18;;;;;;;0.00;0.00;;;;;;;;;;5072842;28;20147;-94
2023/12/29 00:42:44;;;;;;;0.00;0.00;;;;;;;;;;5079295;28;20011;-95
2023/12/29 00:45:10;;;;;;;0.00;0.00;;;;;;;;;;5078711;28;20022;-94
2023/12/29 00:47:36;;;;;;;0.00;0.00;;;;;;;;;;5074866;28;20083;-95
2023/12/29 00:50:02;;;;;;;0.00;0.00;;;;;;;;;;5076285;28;20049;-95
2023/12/29 00:52:28;;;;;;;0.08;0.08;;;;;;;;;;5072020;28;20038;-95
2023/12/29 00:54:54;;;;;;;0.00;0.00;;;;;;;;;;5092913;28;20023;-94
2023/12/29 00:57:20;;;;;;;0.00;0.00;;;;;;;;;;5082116;28;20029;-93
2023/12/29 00:59:47;;;;;;;0.00;0.00;;;10.50;99.90;;;;;;5088295;28;20257;-94
2023/12/29 01:02:13;;;;;;;0.00;0.00;;;;;;;;;;5081600;28;20034;-94
2023/12/29 01:04:39;;;;;;;0.00;0.00;;;;;;;;;;5072794;28;20031;-95
2023/12/29 01:07:05;;;;;;;0.00;0.00;;;;;;;;;;5082763;28;20014;-95
2023/12/29 01:09:31;;;;;;;0.00;0.00;;;;;;;;;;5066656;28;20030;-96
2023/12/29 01:11:57;;;;;;;0.00;0.00;;;;;;;;;;5081958;28;20020;-94
2023/12/29 01:14:23;;;;;;;0.00;0.00;;;;;;;;;;5081718;28;20030;-95
2023/12/29 01:16:49;;;;;;;0.00;0.00;;;;;;;;;;5093338;28;20011;-95
2023/12/29 01:19:14;;;;;;;0.00;0.00;;;;;;;;;;5076058;28;20025;-95
2023/12/29 01:21:40;;;;;;;0.00;0.00;;;;;;;;;;5076430;28;20018;-94
2023/12/29 01:24:07;;;;;;;0.00;0.00;;;;;;;;;;5099213;28;20028;-96
2023/12/29 01:26:37;;;;;;;0.00;0.00;;;10.30;99.90;;;;;;5080724;28;20003;-95
2023/12/29 01:29:03;;;;;;;0.00;0.00;;;;;;;;;;5081436;28;20093;-96
2023/12/29 01:31:33;;;;;;;0.00;0.00;;;;;;;;;;5078927;28;20034;-95
2023/12/29 01:33:59;;;;;;;0.00;0.00;;;;;;;;;;5068694;28;20119;-95
2023/12/29 01:36:25;;;;;;;0.00;0.00;;;;;;;;;;5080564;28;20035;-95
2023/12/29 01:38:51;;;;;;;0.00;0.00;;;;;;;;;;5075345;28;20078;-95
2023/12/29 01:41:20;;;;;;;0.00;0.00;;;;;;;;;;5086303;28;20017;-94
2023/12/29 01:43:58;;;;;;;0.00;0.00;;;;;;;;;;5080858;28;20022;-95
2023/12/29 01:46:32;;;;;;;0.00;0.00;;;;;;;;;;5081362;28;20102;-94
2023/12/29 01:48:58;;;;;;;0.00;0.00;;;10.30;99.90;;;;;;5082337;28;20026;-94
2023/12/29 01:51:25;;;;;;;0.00;0.00;;;;;;;;;;5077709;28;20015;-93
2023/12/29 01:53:52;;;;;;;0.10;0.10;;;;;;;;;;5088223;28;20026;-93
2023/12/29 01:56:19;;;;;;;0.05;0.05;;;;;;;;;;5083479;28;20030;-94
2023/12/29 01:58:46;;;;;;;0.00;0.00;;;;;;;;;;5075433;28;20072;-94
2023/12/29 02:01:12;;;;;;;0.10;0.10;;;;;;;;;;5079497;28;20074;-95
2023/12/29 02:03:38;;;;;;;0.00;0.00;;;;;;;;;;5076105;28;20032;-94
2023/12/29 02:06:05;;;;;;;0.05;0.05;;;;;;;;;;5079139;28;20011;-94
2023/12/29 02:08:31;;;;;;;0.00;0.00;;;;;;;;;;5081699;28;20014;-94
2023/12/29 02:10:57;;;;;;;0.08;0.08;;;;;;;;;;5080652;28;20037;-94
2023/12/29 02:13:23;;;;;;;0.00;0.00;;;;;;;;;;5075365;28;20036;-94
2023/12/29 02:15:51;;;;;;;0.00;0.00;;;;;;;;;;5080669;28;20015;-94
2023/12/29 02:18:18;;;;;;;0.00;0.00;;;;;;;;;;5080540;28;20025;-93
2023/12/29 02:20:44;;;;;;;0.00;0.00;;;;;;;;;;5070019;28;20023;-94
2023/12/29 02:23:10;;;;;;;0.00;0.00;;;;;;;;;;5101814;28;20012;-94
2023/12/29 02:25:36;;;;;;;0.10;0.10;;;;;;;;;;5078182;28;20058;-95
2023/12/29 02:28:05;;;;;;;0.00;0.00;;;;;;;;;;5082197;28;20015;-95
2023/12/29 02:30:37;;;;;;;0.00;0.00;;;;;;;;;;5076207;28;20090;-93
2023/12/29 02:33:05;;;;;;;0.00;0.00;;;;;;;;;;5086283;28;20298;-95
2023/12/29 02:35:34;;;;;;;0.10;0.10;;;;;;;;;;5078732;28;20034;-94
2023/12/29 02:38:00;;;;;;;0.00;0.00;;;;;;;;;;5092406;28;20011;-96
2023/12/29 02:40:26;;;;;;;0.00;0.00;;;;;;;;;;5089913;28;20015;-94
2023/12/29 02:42:52;;;;;;;0.00;0.00;;;;;;;;;;5073484;28;20013;-95
2023/12/29 02:45:18;;;;;;;0.10;0.10;;;;;;;;;;5082202;28;20034;-96
2023/12/29 02:47:44;;;;;;;0.00;0.00;;;;;;;;;;5075280;28;20045;-95
2023/12/29 02:50:10;;;;;;;0.00;0.00;;;;;;;;;;5085161;28;20015;-94
2023/12/29 02:52:36;;;;;;;0.00;0.00;;;;;;;;;;5067198;28;20033;-95
2023/12/29 02:55:03;;;;;;;0.00;0.00;;;;;;;;;;5075975;28;20045;-95
2023/12/29 02:57:29;;;;;;;0.00;0.00;;;;;;;;;;5069346;28;20078;-95
2023/12/29 02:59:55;;;;;;;0.00;0.00;;;;;;;;;;5067867;28;20091;-93
2023/12/29 03:02:21;;;;;;;0.00;0.00;;;;;;;;;;5091874;28;20116;-94
2023/12/29 03:04:47;;;;;;;0.00;0.00;;;;;;;;;;5065891;28;20018;-95
2023/12/29 03:07:13;;;;;;;0.10;0.10;;;;;;;;;;5061947;28;20086;-94
2023/12/29 03:09:39;;;;;;;0.00;0.00;;;;;;;;;;5074140;28;20029;-95
2023/12/29 03:12:05;;;;;;;0.00;0.00;;;;;;;;;;5075655;28;20011;-94
2023/12/29 03:14:31;;;;;;;0.00;0.00;;;;;;;;;;5076790;28;20045;-95
2023/12/29 03:16:57;;;;;;;0.00;0.00;;;;;;;;;;5068062;28;20011;-95
2023/12/29 03:19:23;;;;;;;0.00;0.00;;;;;;;;;;5072465;28;20011;-93
2023/12/29 03:21:50;;;;;;;0.00;0.00;;;;;;;;;;5076144;28;20018;-94
2023/12/29 03:24:16;;;;;;;0.00;0.00;;;;;;;;;;5067597;28;20007;-96
2023/12/29 03:26:42;;;;;;;0.00;0.00;;;;;;;;;;5004281;28;20019;-96
2023/12/29 03:29:07;;;;;;;0.00;0.00;;;;;;;;;;5075070;28;20046;-96
2023/12/29 03:31:33;;;;;;;0.10;0.10;;;;;;;;;;5073953;28;20023;-93
2023/12/29 03:33:59;;;;;;;0.00;0.00;;;;;;;;;;5067558;28;20042;-95
2023/12/29 03:36:25;;;;;;;0.00;0.00;;;;;;;;;;5071343;28;20045;-94
2023/12/29 03:38:51;;;;;;;0.00;0.00;;;;;;;;;;5074856;28;20015;-96
2023/12/29 03:41:18;;;;;;;0.00;0.00;;;;;;;;;;5081157;28;20014;-95
2023/12/29 03:43:44;;;;;;;0.00;0.00;;;;;;;;;;5081407;28;20043;-93
2023/12/29 03:46:17;;;;;;;0.00;0.00;;;;;;;;;;5080364;28;20066;-96
2023/12/29 03:48:43;;;;;;;0.00;0.00;;;;;;;;;;5078027;28;20054;-94
2023/12/29 03:51:09;;;;;;;0.00;0.00;;;;;;;;;;5074331;28;20124;-95
2023/12/29 03:53:35;;;;;;;0.00;0.00;;;;;;;;;;5012321;28;20015;-96
2023/12/29 03:56:05;;;;;;;0.03;0.03;;;;;;;;;;5067188;28;20026;-95
2023/12/29 03:58:31;;;;;;;0.00;0.00;;;;;;;;;;5092155;28;20019;-95
2023/12/29 04:00:57;;;;;;;0.10;0.10;;;;;;;;;;5078201;28;20034;-92
2023/12/29 04:03:23;;;;;;;0.10;0.10;;;;;;;;;;5068027;28;20042;-95
2023/12/29 04:05:49;;;;;;;0.10;0.10;;;;;;;;;;5080262;28;20030;-95
2023/12/29 04:08:15;;;;;;;0.00;0.00;;;;;;;;;;5064669;28;20026;-94
2023/12/29 04:10:41;;;;;;;0.05;0.05;;;;;;;;;;5078903;28;20025;-96
2023/12/29 04:13:07;;;;;;;0.00;0.00;;;;;;;;;;5016036;28;20058;-94
2023/12/29 04:15:33;;;;;;;0.00;0.00;;;;;;;;;;5079338;28;20018;-93
2023/12/29 04:17:59;;;;;;;0.10;0.10;;;;;;;;;;5067855;28;20042;-96
2023/12/29 04:20:25;;;;;;;0.10;0.10;;;;;;;;;;5078374;28;20036;-94
2023/12/29 04:22:51;;;;;;;0.00;0.00;;;;;;;;;;5072420;28;20022;-96
2023/12/29 04:25:17;;;;;;;0.00;0.00;;;;;;;;;;5073473;28;20023;-96
2023/12/29 04:27:43;;;;;;;0.00;0.00;;;;;;;;;;5072722;28;20039;-93
2023/12/29 04:30:09;;;;;;;0.10;0.10;;;;;;;;;;5077910;28;20021;-96
2023/12/29 04:32:35;;;;;;;0.10;0.10;;;;;;;;;;5063243;28;20019;-95
2023/12/29 04:35:01;;;;;;;0.00;0.00;;;;;;;;;;5069691;28;20095;-94
2023/12/29 04:37:26;;;;;;;0.00;0.00;;;;;;;;;;5076084;28;20026;-96
2023/12/29 04:39:53;;;;;;;0.00;0.00;;;;;;;;;;5082198;28;20014;-95
2023/12/29 04:42:18;;;;;;;0.10;0.10;;;;;;;;;;5075634;28;20023;-95
2023/12/29 04:44:45;;;;;;;0.00;0.00;;;;;;;;;;5072239;28;20083;-94
2023/12/29 04:47:10;;;;;;;0.00;0.00;;;;;;;;;;5068825;28;20039;-95
2023/12/29 04:49:37;;;;;;;0.00;0.00;;;;;;;;;;5072828;28;20074;-94
2023/12/29 04:52:03;;;;;;;0.08;0.08;;;;;;;;;;5076239;28;20044;-95
2023/12/29 04:54:29;;;;;;;0.10;0.10;;;;;;;;;;5078355;28;20152;-96
2023/12/29 04:56:55;;;;;;;0.10;0.10;;;;;;;;;;5072115;28;20026;-94
2023/12/29 04:59:20;;;;;;;0.00;0.00;;;;;;;;;;5077842;28;20018;-95
2023/12/29 05:01:46;;;;;;;0.10;0.10;;;;;;;;;;5078423;28;20093;-95
2023/12/29 05:04:14;;;;;;;0.00;0.00;;;;;;;;;;5077971;28;20021;-94
2023/12/29 05:06:40;;;;;;;0.10;0.10;;;;;;;;;;5081611;28;20006;-95
2023/12/29 05:09:06;;;;;;;0.10;0.10;;;;;;;;;;5069014;28;20102;-96
2023/12/29 05:11:32;;;;;;;0.00;0.00;;;;;;;;;;5080799;28;20021;-95
2023/12/29 05:13:58;;;;;;;0.10;0.10;;;;;;;;;;5077883;28;20008;-95
2023/12/29 05:16:24;;;;;;;0.00;0.00;;;;;;;;;;5090979;28;20082;-95
2023/12/29 05:18:50;;;;;;;0.10;0.10;;;;;;;;;;5081162;28;20019;-95
2023/12/29 05:21:17;;;;;;;0.00;0.00;;;;;;;;;;5086018;28;20043;-94
2023/12/29 05:23:45;;;;;;;0.10;0.10;;;;;;;;;;5084967;28;20015;-95
2023/12/29 05:26:10;;;;;;;0.00;0.00;;;;;;;;;;5080227;28;20015;-96
2023/12/29 05:28:36;;;;;;;0.00;0.00;;;;;;;;;;5075659;28;20054;-95
2023/12/29 05:31:05;;;;;;;0.10;0.10;;;;;;;;;;5067368;28;20050;-95
2023/12/29 05:33:32;;;;;;;0.08;0.08;;;;;;;;;;5078031;28;20022;-95
2023/12/29 05:35:58;;;;;;;0.00;0.00;;;;;;;;;;5076596;28;20020;-96
2023/12/29 05:38:24;;;;;;;0.10;0.10;;;;;;;;;;5070960;28;20029;-96
2023/12/29 05:40:50;;;;;;;0.00;0.00;;;;;;;;;;5083831;28;20018;-95
2023/12/29 05:43:17;;;;;;;0.10;0.10;;;;;;;;;;5070294;28;20015;-96
2023/12/29 05:45:42;;;;;;;0.00;0.00;;;;;;;;;;5084389;28;20010;-95
2023/12/29 05:48:08;;;;;;;0.10;0.10;;;;;;;;;;5071473;28;20057;-94
2023/12/29 05:50:34;;;;;;;0.10;0.10;;;;;;;;;;5076371;28;20043;-95
2023/12/29 05:53:00;;;;;;;0.00;0.00;;;;;;;;;;5076785;28;20014;-95
2023/12/29 05:55:26;;;;;;;0.10;0.10;;;;;;;;;;5082446;28;20019;-95
2023/12/29 05:57:52;;;;;;;0.00;0.00;;;;;;;;;;5074562;28;20119;-95
2023/12/29 06:00:18;;;;;;;0.00;0.00;;;;;;;;;;5077235;28;20018;-94
2023/12/29 06:02:44;;;;;;;0.00;0.00;;;;;;;;;;5074542;28;20010;-94
2023/12/29 06:05:13;;;;;;;0.05;0.05;;;;;;;;;;5065851;28;20053;-95
2023/12/29 06:07:39;;;;;;;0.10;0.10;;;;;;;;;;5070678;28;20341;-96
2023/12/29 06:10:06;;;;;;;0.00;0.00;;;;;;;;;;5079803;28;20035;-94
2023/12/29 06:12:32;;;;;;;0.00;0.00;;;;;;;;;;5076533;28;20042;-94
2023/12/29 06:14:57;;;;;;;0.00;0.00;;;;;;;;;;5077914;28;20023;-95
2023/12/29 06:17:24;;;;;;;0.00;0.00;;;;;;;;;;5077927;28;20098;-94
2023/12/29 06:19:49;;;;;;;0.05;0.05;;;;;;;;;;5080390;28;20084;-94
2023/12/29 06:22:15;;;;;;;0.00;0.00;;;;;;;;;;5068159;28;20015;-94
2023/12/29 06:24:41;;;;;;;0.00;0.00;;;;;;;;;;5070788;28;20029;-92
2023/12/29 06:27:08;;;;;;;0.00;0.00;;;;;;;;;;5069247;28;20054;-93
2023/12/29 06:29:34;;;;;;;0.10;0.10;;;;;;;;;;5067688;28;20027;-95
2023/12/29 06:32:00;;;;;;;0.00;0.00;;;;;;;;;;5080513;28;20026;-95
2023/12/29 06:34:26;;;;;;;0.03;0.03;;;;;;;;;;5070195;28;20045;-94
2023/12/29 06:36:52;;;;;;;0.00;0.00;;;;;;;;;;5069776;28;20031;-94
2023/12/29 06:39:18;;;;;;;0.00;0.00;;;;;;;;;;5099461;28;20012;-93
2023/12/29 06:41:44;;;;;;;0.03;0.03;;;;;;;;;;5083748;28;20419;-91
2023/12/29 06:44:10;;;;;;;0.00;0.00;;;;;;;;;;5079872;28;20007;-94
2023/12/29 06:46:39;;;;;;;0.05;0.05;;;;;;;;;;5079498;28;20023;-94
2023/12/29 06:49:06;;;;;;;0.00;0.00;;;;;;;;;;5072470;28;20026;-95
2023/12/29 06:51:32;;;;;;;0.03;0.03;;;;;;;;;;5072656;28;20114;-96
2023/12/29 06:53:58;;;;;;;0.10;0.10;;;;;;;;;;5076066;28;20032;-93
2023/12/29 06:56:24;;;;;;;0.00;0.00;;;;;;;;;;5074500;28;20039;-92
2023/12/29 06:58:50;;;;;;;0.00;0.00;;;;;;;;;;5077304;28;20035;-94
2023/12/29 07:01:16;;;;;;;0.10;0.10;;;;;;;;;;5071422;28;20046;-95
2023/12/29 07:03:42;;;;;;;0.10;0.10;;;;;;;;;;5078103;28;20091;-93
2023/12/29 07:06:08;;;;;;;0.00;0.00;;;;;;;;;;5078993;28;20033;-95
2023/12/29 07:08:34;;;;;;;0.00;0.00;;;;;;;;;;5073842;28;20038;-94
2023/12/29 07:11:00;;;;;;;0.00;0.00;;;;;;;;;;5074171;28;20020;-96
2023/12/29 07:13:26;;;;;;;0.00;0.00;;;;;;;;;;5076272;28;20034;-94
2023/12/29 07:15:52;;;;;;;0.00;0.00;;;;;;;;;;5085518;28;20527;-94
2023/12/29 07:18:18;;;;;;;0.00;0.00;;;;;;;;;;5068003;28;20027;-94
2023/12/29 07:20:44;;;;;;;0.00;0.00;;;;;;;;;;5059676;28;20026;-93
2023/12/29 07:23:10;;;;;;;0.00;0.00;;;;;;;;;;5070595;28;20022;-95
2023/12/29 07:25:36;;;;;;;0.00;0.00;;;;;;;;;;5069766;28;20011;-94
2023/12/29 07:28:02;;;;;;;0.00;0.00;;;;;;;;;;5087129;28;20119;-95
2023/12/29 07:30:28;;;;;;;0.10;0.10;;;;;;;;;;5064702;28;20038;-93
2023/12/29 07:32:54;;;;;;;0.00;0.00;;;;;;;;;;5081119;28;20010;-95
2023/12/29 07:35:20;;;;;;;0.00;0.00;;;;;;;;;;5073436;28;20082;-94
2023/12/29 07:37:46;;;;;;;0.00;0.00;;;;;;;;;;5078061;28;20064;-95
2023/12/29 07:40:13;;;;;;;0.10;0.10;;;;;;;;;;5076169;28;20019;-95
2023/12/29 07:42:44;;;;;;;0.00;0.00;;;;;;;;;;5074923;28;20026;-94
2023/12/29 07:45:10;;;;;;;0.00;0.00;;;;;;;;;;5079447;28;20033;-96
2023/12/29 07:47:36;;;;;;;0.00;0.00;;;;;;;;;;5078842;28;20154;-95
2023/12/29 07:50:02;;;;;;;0.00;0.00;;;;;;;;;;5085642;28;20099;-94
2023/12/29 07:52:28;;;;;;;0.00;0.00;;;;;;;;;;5076592;28;20030;-94
2023/12/29 07:54:54;;;;;;;0.00;0.00;;;;;;;;;;5079274;28;20018;-95
2023/12/29 07:57:20;;;;;;;0.00;0.00;;;;;;;;;;5071857;28;20043;-94
2023/12/29 07:59:46;;;;;;;0.00;0.00;;;;;;;;;;5072398;28;20023;-92
2023/12/29 08:02:12;;;;;;;0.00;0.00;;;;;;;;;;5078140;28;20050;-94
2023/12/29 08:04:38;;;;;;;0.00;0.00;;;;;;;;;;5073020;28;20058;-93
2023/12/29 08:07:04;;;;;;;0.00;0.00;;;;;;;;;;5079076;28;20114;-95
2023/12/29 08:09:30;;;;;;;0.00;0.00;;;;;;;;;;5071218;28;20030;-96
2023/12/29 08:11:56;;;;;;;0.00;0.00;;;;;;;;;;5092073;28;20009;-93
2023/12/29 08:14:22;;;;;;;0.00;0.00;;;;;;;;;;5074111;28;20042;-95
2023/12/29 08:16:48;;;;;;;0.00;0.00;;;;;;;;;;5080797;28;20066;-95
2023/12/29 08:19:15;;;;;;;0.00;0.00;;;;;;;;;;5076805;28;20014;-95
2023/12/29 08:21:41;;;;;;;0.00;0.00;;;;;;;;;;5077267;28;20022;-94
2023/12/29 08:24:07;;;;;;;0.00;0.00;;;;;;;;;;5083653;28;20106;-94
2023/12/29 08:26:33;;;;;;;0.00;0.00;;;;;;;;;;5073891;28;20022;-94
2023/12/29 08:28:59;;;;;;;0.00;0.00;;;;;;;;;;5065100;28;20035;-93
2023/12/29 08:31:26;;;;;;;0.05;0.05;;;;;;;;;;5073928;28;20057;-93
2023/12/29 08:33:52;;;;;;;0.00;0.00;;;;;;;;;;5085226;28;20068;-92
2023/12/29 08:36:21;;;;;;;0.00;0.00;;;;;;;;;;5062675;28;20026;-92
2023/12/29 08:38:47;;;;;;;0.00;0.00;;;;;;;;;;5065704;28;20547;-93
2023/12/29 08:41:18;;;;;;;0.00;0.00;;;;;;;;;;5051799;28;20035;-92
2023/12/29 08:43:44;;;;;;;0.00;0.00;;;;;;;;;;5057054;28;20125;-92
2023/12/29 08:46:10;;;;;;;0.00;0.00;;;;;;;;;;5051649;28;20030;-92
2023/12/29 08:48:36;;;;;;;0.00;0.00;;;;;;;;;;5072527;28;20031;-92
2023/12/29 08:51:02;;;;;;;0.00;0.00;;;;;;;;;;5069969;28;20024;-92
2023/12/29 08:53:31;;;;;;;0.00;0.00;;;;;;;;;;5051485;28;20077;-93
2023/12/29 08:55:57;;;;;;;0.00;0.00;;;;;;;;;;5058225;28;20044;-90
2023/12/29 08:58:22;;;;;;;0.00;0.00;;;;;;;;;;5057825;28;20031;-93
2023/12/29 09:00:48;;;;;;;0.00;0.00;;;;;;;;;;4998961;28;20084;-92
2023/12/29 09:03:14;;;;;;;0.00;0.00;;;;;;;;;;5051515;28;20030;-92
2023/12/29 09:05:40;;;;;;;0.00;0.00;;;;;;;;;;5056772;28;20105;-93
2023/12/29 09:08:06;;;;;;;0.00;0.00;;;10.30;99.90;;;;;;5057972;28;20024;-92
2023/12/29 09:10:32;;;;;;;0.00;0.00;;;;;;;;;;5060023;28;20073;-91
2023/12/29 09:12:58;;;;;;;0.00;0.00;;;;;;;;;;5050999;28;20091;-92
2023/12/29 09:15:24;;;;;;;0.00;0.00;;;;;;;;;;5063006;28;20117;-92
2023/12/29 09:17:50;;;;;;;0.00;0.00;;;;;;;;;;5057121;28;20516;-92
2023/12/29 09:20:16;;;;;;;0.08;0.08;;;9.80;99.90;;;;;;5059461;28;20164;-90
2023/12/29 09:22:42;;;;;;;0.05;0.05;;;;;;;;;;5061892;28;20499;-89
2023/12/29 09:25:22;;;;;;;0.00;0.00;;;;;;;;;;5065139;28;20163;-94
2023/12/29 09:27:49;;;;;;;;;;;9.70;99.90;;;;;;5049230;28;20022;-91
2023/12/29 09:30:15;;;;;;;0.00;0.00;;;;;;;;;;5060486;28;20276;-90
2023/12/29 09:32:41;;;;;;;0.05;0.05;;;;;;;;;;5065108;28;20034;-91
2023/12/29 09:35:07;;;;;;;0.00;0.00;;;;;;;;;;5070926;28;20028;-92
2023/12/29 09:38:04;;;;;;;0.00;0.00;;;;;;;;;;5082504;28;20129;-90
2023/12/29 09:40:30;;;;;;;0.00;0.00;;;;;;;;;;4999043;28;20035;-92
2023/12/29 09:42:56;;;;;;;0.10;0.10;;;;;;;;;;5074724;28;20031;-93
2023/12/29 09:45:25;;;;;;;0.00;0.00;;;9.80;99.90;;;;;;5074400;28;20034;-89
2023/12/29 09:47:52;;;;;;;0.00;0.00;;;9.80;99.90;;;;;;5074748;28;20046;-91
2023/12/29 09:50:19;;;;;;;0.00;0.00;;;9.90;99.90;;;;;;5065963;28;20489;-91
2023/12/29 09:52:49;;;;;;;0.00;0.00;;;9.90;99.90;;;;;;5064449;28;20038;-91
2023/12/29 09:55:15;;;;;;;0.00;0.00;;;;;;;;;;5070157;28;20044;-92
2023/12/29 09:57:42;;;;;;;0.10;0.10;;;;;;;;;;5056919;28;20027;-92
2023/12/29 10:00:11;;;;;;;0.00;0.00;;;;;;;;;;5051557;28;20027;-93
2023/12/29 10:02:37;;;;;;;0.08;0.08;;;;;;;;;;5071071;28;20035;-93
2023/12/29 10:05:04;;;;;;;0.03;0.03;;;9.90;99.90;;;;;;5069141;28;20035;-93
2023/12/29 10:07:32;;;;;;;0.08;0.08;;;;;;;;;;5067255;28;20477;-93
2023/12/29 10:09:58;;;;;;;0.00;0.00;;;;;;;;;;5061918;28;20478;-92
2023/12/29 10:12:25;;;;;;;0.00;0.00;;;;;;;;;;5052350;28;20030;-93
2023/12/29 10:15:10;;;;;;;0.00;0.00;;;;;;;;;;5065793;28;20027;-92
2023/12/29 10:17:59;;;;;;;0.10;0.10;;;;;;;;;;5057857;28;20064;-94
2023/12/29 10:34:31;;;;;;;0.00;0.00;;;;;;;;;;4995083;28;20058;-93
2023/12/29 10:37:23;;;;;;;0.00;0.00;;;;;;;;;;5006822;28;20022;-93
2023/12/29 10:39:56;;;;;;;0.10;0.10;;;10.30;99.90;;;;;;5069479;28;20104;-93
2023/12/29 10:42:22;;;;;;;0.08;0.08;;;;;;;;;;4985307;28;20027;-91
2023/12/29 10:44:48;;;;;;;0.10;0.10;;;;;;;;;;4985175;28;20039;-91
2023/12/29 11:05:25;;;;;;;0.00;0.00;;;10.60;99.90;;;;;;5060632;28;20208;-89
2023/12/29 11:07:54;;;;;;;0.05;0.05;;;;;;;;;;5066123;28;20109;-88
2023/12/29 11:10:20;;;;;;;0.00;0.00;;;;;;;;;;5061628;28;20234;-90
2023/12/29 11:12:48;;;;;;;0.00;0.00;;;;;;;;;;5064781;28;20193;-89
2023/12/29 11:15:15;;;;;;;0.00;0.00;;;10.70;99.90;;;;;;5061850;28;20468;-89
2023/12/29 11:17:49;;;;;;;0.00;0.00;;;10.70;99.90;;;;;;5082706;28;20123;-91
2023/12/29 11:20:16;;;;;;;0.00;0.00;;;;;;;;;;5070470;28;20032;-90
2023/12/29 11:22:43;;;;;;;0.00;0.00;;;10.70;99.90;;;;;;5064109;28;20792;-89
2023/12/29 11:25:09;;;;;;;0.00;0.00;;;;;;;;;;5062839;28;20033;-91
2023/12/29 11:27:36;;;;;;;0.00;0.00;;;;;;;;;;5066745;28;20048;-89
2023/12/29 11:30:05;;;;;;;0.00;0.00;;;10.80;99.90;;;;;;5061486;28;20116;-90
2023/12/29 11:33:11;;;;;;;0.00;0.00;;;10.80;99.90;;;;;;5077739;28;20533;-92
2023/12/29 11:35:51;;;;;;;0.00;0.00;;;10.90;99.90;;;;;;5068949;28;20041;-91
2023/12/29 11:39:00;;;;;;;0.00;0.00;;;11.00;99.90;;;;;;5079273;28;20060;-91
2023/12/29 11:41:32;;;;;;;0.10;0.10;;;10.90;99.90;;;;;;5068580;28;20037;-91
2023/12/29 11:43:58;;;;;;;0.00;0.00;;;;;;;;;;5068595;28;20025;-91
2023/12/29 11:46:38;;;;;;;0.03;0.03;;;11.00;99.90;;;;;;5066023;28;20009;-91
2023/12/29 11:49:04;;;;;;;;;;;11.00;99.90;;;;;;5063220;28;20048;-91
2023/12/29 11:51:39;;;;;;;0.00;0.00;;;10.90;99.90;;;;;;5064791;28;19940;-90
2023/12/29 11:54:38;;;;;;;0.05;0.05;;;10.90;99.90;;;;;;5065437;28;20009;-91
2023/12/29 11:57:12;;;;;;;0.00;0.00;;;11.00;99.90;;;;;;5068268;28;20092;-93
2023/12/29 12:00:06;;;;;;;0.00;0.00;;;11.00;99.90;;;;;;5070081;28;20025;-92
2023/12/29 12:02:44;;;;;;;0.00;0.00;;;;;;;;;;5066898;28;20037;-90
2023/12/29 12:05:11;;;;;;;0.00;0.00;;;;;;;;;;5068457;28;20033;-91
2023/12/29 12:07:40;;;;;;;0.00;0.00;;;;;;;;;;5069557;28;20029;-91
2023/12/29 12:10:22;;;;;;;0.00;0.00;;;;;;;;;;5070778;28;20115;-90
2023/12/29 12:12:51;;;;;;;0.00;0.00;;;;;;;;;;5070975;28;20017;-91
2023/12/29 12:15:31;;;;;;;0.00;0.00;;;10.70;99.90;;;;;;5073938;28;20023;-89
2023/12/29 12:18:06;;;;;;;0.00;0.00;;;10.80;99.90;;;;;;5071351;28;20025;-91
2023/12/29 12:20:32;;;;;;;0.00;0.00;;;;;;;;;;5073055;28;20032;-89
2023/12/29 12:23:02;;;;;;;0.00;0.00;;;10.80;99.90;;;;;;5066866;28;20032;-91
2023/12/29 12:25:30;;;;;;;0.10;0.10;;;10.80;99.90;;;;;;5070407;28;20120;-91
2023/12/29 12:28:06;;;;;;;0.00;0.00;;;10.80;99.90;;;;;;5065245;28;20040;-91
2023/12/29 12:30:46;;;;;;;0.00;0.00;;;;;;;;;;5067162;28;20020;-92
2023/12/29 12:33:13;;;;;;;0.00;0.00;;;10.90;99.90;;;;;;5073668;28;20040;-89
2023/12/29 13:58:29;;;;;;;0.00;0.00;;;;;;;;;;5074936;28;20075;-88
2023/12/29 14:00:59;;;;;;;0.00;0.00;;;10.70;99.90;;;;;;5100773;28;20001;-91
2023/12/29 14:03:34;;;;;;;0.00;0.00;;;10.60;99.90;;;;;;5072992;28;20096;-90
2023/12/29 14:06:01;;;;;;;0.00;0.00;;;;;;;;;;5088013;28;20025;-90
2023/12/29 14:08:39;;;;;;;0.00;0.00;;;10.70;99.90;;;;;;5075455;28;20025;-88
2023/12/29 14:11:09;;;;;;;0.00;0.00;;;10.70;99.90;;;;;;5068647;28;20028;-90
2023/12/29 14:13:35;;;;;;;0.00;0.00;;;;;;;;;;5072486;28;20086;-87
2023/12/29 14:16:01;;;;;;;0.00;0.00;;;;;;;;;;5076310;28;20024;-91
2023/12/29 14:18:43;;;;;;;0.00;0.00;;;10.70;99.90;;;;;;5079068;28;20029;-91
2023/12/29 14:21:21;;;;;;;0.00;0.00;;;10.60;99.90;;;;;;5068882;28;20028;-91
2023/12/29 14:24:10;;;;;;;0.00;0.00;;;10.50;99.90;;;;;;5092933;28;20496;-92
2023/12/29 14:26:44;;;;;;;0.00;0.00;;;10.50;99.90;;;;;;5086732;28;20033;-89
2023/12/29 14:29:10;;;;;;;0.00;0.00;;;;;;;;;;5066215;28;20033;-91
2023/12/29 14:31:41;;;;;;;0.00;0.00;;;10.50;99.90;;;;;;5067100;28;20017;-90
2023/12/29 14:34:08;;;;;;;0.00;0.00;;;;;;;;;;5073981;28;20071;-92
2023/12/29 14:36:34;;;;;;;0.00;0.00;;;;;;;;;;5070537;28;20051;-90
2023/12/29 14:39:00;;;;;;;0.00;0.00;;;;;;;;;;5074518;28;20024;-91
2023/12/29 14:41:27;;;;;;;0.00;0.00;;;;;;;;;;5076937;28;20491;-91
2023/12/29 14:43:53;;;;;;;0.00;0.00;;;;;;;;;;5067965;28;20055;-89
2023/12/29 14:46:19;;;;;;;0.00;0.00;;;;;;;;;;5071408;28;20043;-92
2023/12/29 14:48:45;;;;;;;0.00;0.00;;;;;;;;;;5068747;28;20049;-91
2023/12/29 14:51:11;;;;;;;0.00;0.00;;;;;;;;;;5070956;28;20017;-91
2023/12/29 14:53:37;;;;;;;0.00;0.00;;;10.40;99.90;;;;;;5072465;28;20094;-91
2023/12/29 14:56:03;;;;;;;0.00;0.00;;;;;;;;;;5072087;28;20031;-91
2023/12/29 14:58:31;;;;;;;0.00;0.00;;;;;;;;;;5073096;28;20062;-92
2023/12/29 15:00:57;;;;;;;0.00;0.00;;;;;;;;;;5074371;28;20028;-90
2023/12/29 15:03:23;;;;;;;0.00;0.00;;;;;;;;;;5070995;28;20116;-90
2023/12/29 15:05:49;;;;;;;0.00;0.00;;;;;;;;;;5064927;28;20032;-90
2023/12/29 15:08:16;;;;;;;0.00;0.00;;;;;;;;;;5071226;28;20036;-91
2023/12/29 15:10:42;;;;;;;0.00;0.00;;;;;;;;;;5067847;28;20036;-90
2023/12/29 15:13:08;;;;;;;0.00;0.00;;;;;;;;;;5071569;28;20025;-91
2023/12/29 15:15:34;;;;;;;0.00;0.00;;;;;;;;;;5068150;28;20029;-91
2023/12/29 15:18:00;;;;;;;0.00;0.00;;;;;;;;;;5074951;28;20087;-91
2023/12/29 15:20:26;;;;;;;0.00;0.00;;;;;;;;;;5067442;28;20037;-91
2023/12/29 15:22:55;;;;;;;0.10;0.10;;;;;;;;;;5068668;28;20037;-91
2023/12/29 15:25:23;;;;;;;0.00;0.00;;;;;;;;;;5067163;28;20039;-92
2023/12/29 15:27:48;;;;;;;0.00;0.00;;;;;;;;;;5074001;28;20033;-90
2023/12/29 15:30:15;;;;;;;0.00;0.00;;;;;;;;;;5071945;28;20089;-90
2023/12/29 15:32:41;;;;;;;0.00;0.00;;;;;;;;;;5071663;28;20044;-90
2023/12/29 15:35:07;;;;;;;0.10;0.10;;;;;;;;;;5072548;28;20025;-91
2023/12/29 15:37:33;;;;;;;0.10;0.10;;;;;;;;;;5066950;28;20028;-90
2023/12/29 15:39:59;;;;;;;0.10;0.10;;;;;;;;;;5067341;28;20032;-90
2023/12/29 15:42:25;;;;;;;0.00;0.00;;;;;;;;;;5066083;28;20041;-91
2023/12/29 15:44:51;;;;;;;0.00;0.00;;;;;;;;;;5064497;28;20051;-91
2023/12/29 15:47:17;;;;;;;0.00;0.00;;;;;;;;;;5066365;28;20119;-92
2023/12/29 15:49:43;;;;;;;0.00;0.00;;;;;;;;;;5065169;28;20037;-90
2023/12/29 15:52:09;;;;;;;0.00;0.00;;;;;;;;;;5069154;28;20020;-91
2023/12/29 15:54:35;;;;;;;0.00;0.00;;;;;;;;;;5072575;28;20052;-91
2023/12/29 15:57:07;;;;;;;0.10;0.10;;;;;;;;;;5082307;28;20043;-89
2023/12/29 15:59:33;;;;;;;0.00;0.00;;;;;;;;;;5063340;28;20044;-91
2023/12/29 16:01:59;;;;;;;0.10;0.10;;;;;;;;;;5071163;28;20029;-91
2023/12/29 16:04:24;;;;;;;0.05;0.05;;;;;;;;;;5065887;28;20056;-91
2023/12/29 16:06:50;;;;;;;0.10;0.10;;;;;;;;;;5065499;28;20092;-91
2023/12/29 16:09:16;;;;;;;0.05;0.05;;;;;;;;;;5063351;28;20614;-91
2023/12/29 16:11:42;;;;;;;0.10;0.10;;;;;;;;;;5068396;28;20029;-91
2023/12/29 16:14:08;;;;;;;0.08;0.08;;;;;;;;;;5067055;28;20124;-91
2023/12/29 16:16:38;;;;;;;0.00;0.00;;;9.80;99.90;;;;;;5063943;28;20021;-91
2023/12/29 16:19:04;;;;;;;0.00;0.00;;;;;;;;;;5063614;28;20032;-91
2023/12/29 16:21:39;;;;;;;0.10;0.10;;;9.80;99.90;;;;;;5065146;28;20041;-91
2023/12/29 16:24:05;;;;;;;0.00;0.00;;;;;;;;;;5065286;28;20029;-90
2023/12/29 16:26:31;;;;;;;0.00;0.00;;;;;;;;;;5064817;28;20055;-91